sensor_id;sensor_type;location;lat;lon;timestamp;temperature;humidity
40636;DHT22;26642;55.766;37.828;2023-02-28T00:00:25;10.00;58.10
40636;DHT22;26642;55.766;37.828;2023-02-28T00:02:51;10.00;58.10
40636;DHT22;26642;55.766;37.828;2023-02-28T00:05:21;10.00;58.10
40636;DHT22;26642;55.766;37.828;2023-02-28T00:07:48;10.00;58.10
40636;DHT22;26642;55.766;37.828;2023-02-28T00:10:19;10.00;58.00
40636;DHT22;26642;55.766;37.828;2023-02-28T00:12:50;10.00;58.10
40636;DHT22;26642;55.766;37.828;2023-02-28T00:15:17;10.00;58.00
40636;DHT22;26642;55.766;37.828;2023-02-28T00:17:43;10.00;58.00
40636;DHT22;26642;55.766;37.828;2023-02-28T00:20:11;10.00;58.00
40636;DHT22;26642;55.766;37.828;2023-02-28T00:22:42;9.90;57.80
40636;DHT22;26642;55.766;37.828;2023-02-28T00:25:10;10.00;57.90
40636;DHT22;26642;55.766;37.828;2023-02-28T00:27:37;10.00;57.70
40636;DHT22;26642;55.766;37.828;2023-02-28T00:30:05;9.90;57.60
40636;DHT22;26642;55.766;37.828;2023-02-28T00:32:31;10.00;57.60
40636;DHT22;26642;55.766;37.828;2023-02-28T00:34:57;9.90;57.60
40636;DHT22;26642;55.766;37.828;2023-02-28T00:37:23;10.00;57.50
40636;DHT22;26642;55.766;37.828;2023-02-28T00:39:49;9.90;57.40
40636;DHT22;26642;55.766;37.828;2023-02-28T00:42:15;9.90;57.50
40636;DHT22;26642;55.766;37.828;2023-02-28T00:44:41;9.90;57.60
40636;DHT22;26642;55.766;37.828;2023-02-28T00:47:07;9.90;57.60
40636;DHT22;26642;55.766;37.828;2023-02-28T00:49:33;10.00;57.60
40636;DHT22;26642;55.766;37.828;2023-02-28T00:51:59;9.90;57.60
40636;DHT22;26642;55.766;37.828;2023-02-28T00:54:26;9.90;57.60
40636;DHT22;26642;55.766;37.828;2023-02-28T00:56:52;9.90;57.60
40636;DHT22;26642;55.766;37.828;2023-02-28T00:59:18;9.90;57.50
40636;DHT22;26642;55.766;37.828;2023-02-28T01:01:45;9.90;57.50
40636;DHT22;26642;55.766;37.828;2023-02-28T01:04:12;9.90;57.50
40636;DHT22;26642;55.766;37.828;2023-02-28T01:06:38;9.90;57.50
40636;DHT22;26642;55.766;37.828;2023-02-28T01:09:06;9.90;57.40
40636;DHT22;26642;55.766;37.828;2023-02-28T01:11:33;9.90;57.40
40636;DHT22;26642;55.766;37.828;2023-02-28T01:13:59;9.90;57.40
40636;DHT22;26642;55.766;37.828;2023-02-28T01:16:26;9.90;57.30
40636;DHT22;26642;55.766;37.828;2023-02-28T01:18:52;9.90;57.40
40636;DHT22;26642;55.766;37.828;2023-02-28T01:21:20;9.90;57.30
40636;DHT22;26642;55.766;37.828;2023-02-28T01:23:47;9.90;57.30
40636;DHT22;26642;55.766;37.828;2023-02-28T01:26:17;9.90;57.20
40636;DHT22;26642;55.766;37.828;2023-02-28T01:28:43;9.90;57.20
40636;DHT22;26642;55.766;37.828;2023-02-28T01:31:10;9.90;57.40
40636;DHT22;26642;55.766;37.828;2023-02-28T01:33:37;9.90;57.30
40636;DHT22;26642;55.766;37.828;2023-02-28T01:36:10;9.80;57.30
40636;DHT22;26642;55.766;37.828;2023-02-28T01:38:37;9.90;57.40
40636;DHT22;26642;55.766;37.828;2023-02-28T01:41:04;9.90;57.30
40636;DHT22;26642;55.766;37.828;2023-02-28T01:43:53;9.90;57.30
40636;DHT22;26642;55.766;37.828;2023-02-28T01:46:18;9.90;57.30
40636;DHT22;26642;55.766;37.828;2023-02-28T01:49:03;9.90;57.40
40636;DHT22;26642;55.766;37.828;2023-02-28T01:54:05;9.80;57.40
40636;DHT22;26642;55.766;37.828;2023-02-28T01:56:35;9.80;57.30
40636;DHT22;26642;55.766;37.828;2023-02-28T01:59:04;9.90;57.40
40636;DHT22;26642;55.766;37.828;2023-02-28T02:01:30;9.80;57.30
40636;DHT22;26642;55.766;37.828;2023-02-28T02:04:00;9.90;57.50
40636;DHT22;26642;55.766;37.828;2023-02-28T02:06:40;9.80;57.50
40636;DHT22;26642;55.766;37.828;2023-02-28T02:09:10;9.80;57.40
40636;DHT22;26642;55.766;37.828;2023-02-28T02:11:37;9.80;57.40
40636;DHT22;26642;55.766;37.828;2023-02-28T02:14:40;9.80;57.50
40636;DHT22;26642;55.766;37.828;2023-02-28T02:17:39;9.90;57.40
40636;DHT22;26642;55.766;37.828;2023-02-28T02:28:42;9.80;57.50
40636;DHT22;26642;55.766;37.828;2023-02-28T02:38:00;9.80;57.40
40636;DHT22;26642;55.766;37.828;2023-02-28T02:40:27;9.80;57.30
40636;DHT22;26642;55.766;37.828;2023-02-28T02:45:49;9.80;57.40
40636;DHT22;26642;55.766;37.828;2023-02-28T02:48:27;9.80;57.40
40636;DHT22;26642;55.766;37.828;2023-02-28T02:51:01;9.80;57.30
40636;DHT22;26642;55.766;37.828;2023-02-28T02:53:42;9.80;57.40
40636;DHT22;26642;55.766;37.828;2023-02-28T02:56:12;9.80;57.40
40636;DHT22;26642;55.766;37.828;2023-02-28T02:58:41;9.80;57.40
40636;DHT22;26642;55.766;37.828;2023-02-28T03:01:14;9.80;57.50
40636;DHT22;26642;55.766;37.828;2023-02-28T03:03:42;9.80;57.30
40636;DHT22;26642;55.766;37.828;2023-02-28T03:06:09;9.80;57.30
40636;DHT22;26642;55.766;37.828;2023-02-28T03:08:37;9.80;57.40
40636;DHT22;26642;55.766;37.828;2023-02-28T03:11:12;9.80;57.40
40636;DHT22;26642;55.766;37.828;2023-02-28T03:25:38;9.80;57.50
40636;DHT22;26642;55.766;37.828;2023-02-28T03:33:32;9.70;57.70
40636;DHT22;26642;55.766;37.828;2023-02-28T03:36:09;9.80;57.70
40636;DHT22;26642;55.766;37.828;2023-02-28T03:38:40;9.80;57.70
40636;DHT22;26642;55.766;37.828;2023-02-28T03:41:18;9.80;57.70
40636;DHT22;26642;55.766;37.828;2023-02-28T03:44:00;9.80;57.80
40636;DHT22;26642;55.766;37.828;2023-02-28T03:46:32;9.80;57.80
40636;DHT22;26642;55.766;37.828;2023-02-28T03:49:06;9.80;57.60
40636;DHT22;26642;55.766;37.828;2023-02-28T03:51:36;9.80;57.60
40636;DHT22;26642;55.766;37.828;2023-02-28T03:54:11;9.80;57.60
40636;DHT22;26642;55.766;37.828;2023-02-28T03:56:43;9.70;57.70
40636;DHT22;26642;55.766;37.828;2023-02-28T03:59:22;9.80;57.60
40636;DHT22;26642;55.766;37.828;2023-02-28T04:01:51;9.80;57.70
40636;DHT22;26642;55.766;37.828;2023-02-28T04:04:17;9.70;57.70
40636;DHT22;26642;55.766;37.828;2023-02-28T04:06:44;9.80;57.70
40636;DHT22;26642;55.766;37.828;2023-02-28T04:09:13;9.80;57.80
40636;DHT22;26642;55.766;37.828;2023-02-28T04:11:45;9.80;57.70
40636;DHT22;26642;55.766;37.828;2023-02-28T04:14:12;9.80;57.80
40636;DHT22;26642;55.766;37.828;2023-02-28T04:16:40;9.80;57.70
40636;DHT22;26642;55.766;37.828;2023-02-28T04:19:08;9.80;57.70
40636;DHT22;26642;55.766;37.828;2023-02-28T04:21:45;9.70;57.70
40636;DHT22;26642;55.766;37.828;2023-02-28T04:24:26;9.80;57.70
40636;DHT22;26642;55.766;37.828;2023-02-28T04:26:54;9.70;57.70
40636;DHT22;26642;55.766;37.828;2023-02-28T04:29:23;9.80;57.70
40636;DHT22;26642;55.766;37.828;2023-02-28T04:31:49;9.80;57.60
40636;DHT22;26642;55.766;37.828;2023-02-28T04:34:15;9.80;57.60
40636;DHT22;26642;55.766;37.828;2023-02-28T04:36:41;9.80;57.50
40636;DHT22;26642;55.766;37.828;2023-02-28T04:39:07;9.80;57.50
40636;DHT22;26642;55.766;37.828;2023-02-28T04:41:33;9.80;57.60
40636;DHT22;26642;55.766;37.828;2023-02-28T04:43:59;9.80;57.70
40636;DHT22;26642;55.766;37.828;2023-02-28T04:46:25;9.80;57.80
40636;DHT22;26642;55.766;37.828;2023-02-28T04:48:51;9.80;58.10
40636;DHT22;26642;55.766;37.828;2023-02-28T04:51:18;9.80;58.30
40636;DHT22;26642;55.766;37.828;2023-02-28T04:53:44;9.80;58.70
40636;DHT22;26642;55.766;37.828;2023-02-28T04:56:12;9.80;59.00
40636;DHT22;26642;55.766;37.828;2023-02-28T04:58:39;9.90;59.10
40636;DHT22;26642;55.766;37.828;2023-02-28T05:01:15;9.80;59.00
40636;DHT22;26642;55.766;37.828;2023-02-28T05:03:42;9.90;59.30
40636;DHT22;26642;55.766;37.828;2023-02-28T05:06:10;9.90;59.70
40636;DHT22;26642;55.766;37.828;2023-02-28T05:08:36;9.90;59.80
40636;DHT22;26642;55.766;37.828;2023-02-28T05:11:03;9.90;59.70
40636;DHT22;26642;55.766;37.828;2023-02-28T05:13:29;9.90;59.90
40636;DHT22;26642;55.766;37.828;2023-02-28T05:15:55;9.90;59.90
40636;DHT22;26642;55.766;37.828;2023-02-28T05:18:21;9.90;60.00
40636;DHT22;26642;55.766;37.828;2023-02-28T05:20:47;10.00;60.00
40636;DHT22;26642;55.766;37.828;2023-02-28T05:23:14;10.00;59.80
40636;DHT22;26642;55.766;37.828;2023-02-28T05:25:41;10.00;59.70
40636;DHT22;26642;55.766;37.828;2023-02-28T05:28:07;10.00;59.70
40636;DHT22;26642;55.766;37.828;2023-02-28T05:30:33;10.10;59.70
40636;DHT22;26642;55.766;37.828;2023-02-28T05:32:59;10.00;53.50
40636;DHT22;26642;55.766;37.828;2023-02-28T05:35:26;9.70;49.20
40636;DHT22;26642;55.766;37.828;2023-02-28T05:37:52;9.40;47.20
40636;DHT22;26642;55.766;37.828;2023-02-28T05:40:18;9.20;46.00
40636;DHT22;26642;55.766;37.828;2023-02-28T05:42:46;9.10;45.50
40636;DHT22;26642;55.766;37.828;2023-02-28T05:45:12;8.90;44.90
40636;DHT22;26642;55.766;37.828;2023-02-28T05:47:38;8.80;45.10
40636;DHT22;26642;55.766;37.828;2023-02-28T05:50:05;8.70;44.80
40636;DHT22;26642;55.766;37.828;2023-02-28T05:52:31;8.70;46.00
40636;DHT22;26642;55.766;37.828;2023-02-28T05:54:57;8.60;45.00
40636;DHT22;26642;55.766;37.828;2023-02-28T05:57:24;8.50;44.60
40636;DHT22;26642;55.766;37.828;2023-02-28T05:59:50;8.50;44.60
40636;DHT22;26642;55.766;37.828;2023-02-28T06:02:17;8.40;44.50
40636;DHT22;26642;55.766;37.828;2023-02-28T06:04:43;8.40;44.30
40636;DHT22;26642;55.766;37.828;2023-02-28T06:07:09;8.30;43.70
40636;DHT22;26642;55.766;37.828;2023-02-28T06:09:36;8.20;44.00
40636;DHT22;26642;55.766;37.828;2023-02-28T06:12:03;8.20;43.40
40636;DHT22;26642;55.766;37.828;2023-02-28T06:14:32;8.20;43.40
40636;DHT22;26642;55.766;37.828;2023-02-28T06:16:59;8.20;43.30
40636;DHT22;26642;55.766;37.828;2023-02-28T06:19:26;8.30;43.60
40636;DHT22;26642;55.766;37.828;2023-02-28T06:21:53;8.40;43.60
40636;DHT22;26642;55.766;37.828;2023-02-28T06:24:23;8.40;42.90
40636;DHT22;26642;55.766;37.828;2023-02-28T06:26:50;8.40;43.00
40636;DHT22;26642;55.766;37.828;2023-02-28T06:29:16;8.50;42.90
40636;DHT22;26642;55.766;37.828;2023-02-28T06:31:45;8.50;42.60
40636;DHT22;26642;55.766;37.828;2023-02-28T06:34:12;8.40;42.30
40636;DHT22;26642;55.766;37.828;2023-02-28T06:36:39;8.40;42.70
40636;DHT22;26642;55.766;37.828;2023-02-28T06:39:05;8.20;42.70
40636;DHT22;26642;55.766;37.828;2023-02-28T06:41:31;8.10;42.70
40636;DHT22;26642;55.766;37.828;2023-02-28T06:44:16;7.90;43.20
40636;DHT22;26642;55.766;37.828;2023-02-28T06:46:44;7.60;43.00
40636;DHT22;26642;55.766;37.828;2023-02-28T06:49:11;7.60;43.90
40636;DHT22;26642;55.766;37.828;2023-02-28T06:51:41;7.80;45.30
40636;DHT22;26642;55.766;37.828;2023-02-28T06:54:07;8.10;47.90
40636;DHT22;26642;55.766;37.828;2023-02-28T06:56:37;8.30;49.50
40636;DHT22;26642;55.766;37.828;2023-02-28T06:59:03;8.50;50.70
40636;DHT22;26642;55.766;37.828;2023-02-28T07:01:30;8.70;51.30
40636;DHT22;26642;55.766;37.828;2023-02-28T07:03:59;8.90;51.50
40636;DHT22;26642;55.766;37.828;2023-02-28T07:06:26;9.10;51.50
40636;DHT22;26642;55.766;37.828;2023-02-28T07:08:53;9.20;51.70
40636;DHT22;26642;55.766;37.828;2023-02-28T07:11:25;9.30;51.50
40636;DHT22;26642;55.766;37.828;2023-02-28T07:13:52;9.50;51.70
40636;DHT22;26642;55.766;37.828;2023-02-28T07:16:18;9.50;51.80
40636;DHT22;26642;55.766;37.828;2023-02-28T07:18:44;9.60;51.40
40636;DHT22;26642;55.766;37.828;2023-02-28T07:21:11;9.70;51.20
40636;DHT22;26642;55.766;37.828;2023-02-28T07:23:37;9.70;51.00
40636;DHT22;26642;55.766;37.828;2023-02-28T07:26:05;9.80;51.10
40636;DHT22;26642;55.766;37.828;2023-02-28T07:28:31;9.90;51.20
40636;DHT22;26642;55.766;37.828;2023-02-28T07:30:57;9.90;51.20
40636;DHT22;26642;55.766;37.828;2023-02-28T07:33:23;10.00;51.30
40636;DHT22;26642;55.766;37.828;2023-02-28T07:35:49;10.10;51.90
40636;DHT22;26642;55.766;37.828;2023-02-28T07:38:15;10.10;52.50
40636;DHT22;26642;55.766;37.828;2023-02-28T07:40:41;10.10;53.10
40636;DHT22;26642;55.766;37.828;2023-02-28T07:43:07;10.20;53.60
40636;DHT22;26642;55.766;37.828;2023-02-28T07:45:33;10.20;54.00
40636;DHT22;26642;55.766;37.828;2023-02-28T07:48:00;10.30;54.70
40636;DHT22;26642;55.766;37.828;2023-02-28T07:50:27;10.30;54.80
40636;DHT22;26642;55.766;37.828;2023-02-28T07:52:58;10.40;56.00
40636;DHT22;26642;55.766;37.828;2023-02-28T07:55:24;10.40;56.20
40636;DHT22;26642;55.766;37.828;2023-02-28T07:57:50;10.50;55.70
40636;DHT22;26642;55.766;37.828;2023-02-28T08:00:16;10.60;55.50
40636;DHT22;26642;55.766;37.828;2023-02-28T08:02:42;10.60;55.30
40636;DHT22;26642;55.766;37.828;2023-02-28T08:05:08;10.60;55.20
40636;DHT22;26642;55.766;37.828;2023-02-28T08:07:34;10.70;55.40
40636;DHT22;26642;55.766;37.828;2023-02-28T08:10:00;10.70;55.50
40636;DHT22;26642;55.766;37.828;2023-02-28T08:12:26;10.70;55.80
40636;DHT22;26642;55.766;37.828;2023-02-28T08:14:52;10.80;56.00
40636;DHT22;26642;55.766;37.828;2023-02-28T08:17:18;10.80;55.90
40636;DHT22;26642;55.766;37.828;2023-02-28T08:19:47;10.80;55.80
40636;DHT22;26642;55.766;37.828;2023-02-28T08:22:13;10.80;55.70
40636;DHT22;26642;55.766;37.828;2023-02-28T08:24:41;10.80;55.50
40636;DHT22;26642;55.766;37.828;2023-02-28T08:27:08;10.90;55.50
40636;DHT22;26642;55.766;37.828;2023-02-28T08:29:37;10.90;55.20
40636;DHT22;26642;55.766;37.828;2023-02-28T08:32:03;10.90;55.10
40636;DHT22;26642;55.766;37.828;2023-02-28T08:34:29;10.90;55.00
40636;DHT22;26642;55.766;37.828;2023-02-28T08:36:55;10.90;54.80
40636;DHT22;26642;55.766;37.828;2023-02-28T08:39:21;10.90;54.70
40636;DHT22;26642;55.766;37.828;2023-02-28T08:41:47;11.00;54.70
40636;DHT22;26642;55.766;37.828;2023-02-28T08:44:13;11.00;54.70
40636;DHT22;26642;55.766;37.828;2023-02-28T08:46:39;11.00;54.70
40636;DHT22;26642;55.766;37.828;2023-02-28T08:49:04;11.00;54.60
40636;DHT22;26642;55.766;37.828;2023-02-28T08:51:30;11.00;54.50
40636;DHT22;26642;55.766;37.828;2023-02-28T08:53:59;11.00;54.50
40636;DHT22;26642;55.766;37.828;2023-02-28T08:56:26;11.10;54.50
40636;DHT22;26642;55.766;37.828;2023-02-28T08:58:54;11.10;54.40
40636;DHT22;26642;55.766;37.828;2023-02-28T09:01:26;11.00;54.30
40636;DHT22;26642;55.766;37.828;2023-02-28T09:03:53;11.10;54.30
40636;DHT22;26642;55.766;37.828;2023-02-28T09:06:22;11.00;54.20
40636;DHT22;26642;55.766;37.828;2023-02-28T09:08:49;11.00;54.00
40636;DHT22;26642;55.766;37.828;2023-02-28T09:11:15;11.00;54.00
40636;DHT22;26642;55.766;37.828;2023-02-28T09:13:42;11.00;53.90
40636;DHT22;26642;55.766;37.828;2023-02-28T09:16:11;11.00;53.90
40636;DHT22;26642;55.766;37.828;2023-02-28T09:18:38;11.00;53.90
40636;DHT22;26642;55.766;37.828;2023-02-28T09:21:08;11.00;53.90
40636;DHT22;26642;55.766;37.828;2023-02-28T09:23:35;11.00;53.90
40636;DHT22;26642;55.766;37.828;2023-02-28T09:26:03;11.00;53.70
40636;DHT22;26642;55.766;37.828;2023-02-28T09:28:29;11.00;53.60
40636;DHT22;26642;55.766;37.828;2023-02-28T09:30:55;11.00;54.20
40636;DHT22;26642;55.766;37.828;2023-02-28T09:33:23;11.00;53.60
40636;DHT22;26642;55.766;37.828;2023-02-28T09:35:49;11.10;53.60
40636;DHT22;26642;55.766;37.828;2023-02-28T09:38:16;11.00;53.40
40636;DHT22;26642;55.766;37.828;2023-02-28T09:40:51;11.10;53.50
40636;DHT22;26642;55.766;37.828;2023-02-28T09:43:20;11.10;53.50
40636;DHT22;26642;55.766;37.828;2023-02-28T09:46:03;11.00;53.40
40636;DHT22;26642;55.766;37.828;2023-02-28T09:48:37;11.10;53.50
40636;DHT22;26642;55.766;37.828;2023-02-28T09:53:53;11.10;53.40
40636;DHT22;26642;55.766;37.828;2023-02-28T09:56:37;11.10;53.20
40636;DHT22;26642;55.766;37.828;2023-02-28T09:59:31;11.10;53.30
40636;DHT22;26642;55.766;37.828;2023-02-28T10:02:35;11.10;53.30
40636;DHT22;26642;55.766;37.828;2023-02-28T10:05:13;11.10;53.30
40636;DHT22;26642;55.766;37.828;2023-02-28T10:08:11;11.10;53.30
40636;DHT22;26642;55.766;37.828;2023-02-28T10:10:47;11.10;53.40
40636;DHT22;26642;55.766;37.828;2023-02-28T10:13:48;11.10;53.30
40636;DHT22;26642;55.766;37.828;2023-02-28T10:16:49;11.10;53.30
40636;DHT22;26642;55.766;37.828;2023-02-28T10:19:35;11.10;53.20
40636;DHT22;26642;55.766;37.828;2023-02-28T10:24:49;11.10;52.80
40636;DHT22;26642;55.766;37.828;2023-02-28T10:27:22;11.10;52.40
40636;DHT22;26642;55.766;37.828;2023-02-28T10:29:57;11.10;52.10
40636;DHT22;26642;55.766;37.828;2023-02-28T10:32:35;11.10;52.10
40636;DHT22;26642;55.766;37.828;2023-02-28T10:35:18;11.00;52.20
40636;DHT22;26642;55.766;37.828;2023-02-28T10:37:47;11.00;52.20
40636;DHT22;26642;55.766;37.828;2023-02-28T10:45:25;11.00;52.10
40636;DHT22;26642;55.766;37.828;2023-02-28T10:47:53;11.00;52.00
40636;DHT22;26642;55.766;37.828;2023-02-28T10:50:46;11.00;51.90
40636;DHT22;26642;55.766;37.828;2023-02-28T10:53:22;10.90;51.90
40636;DHT22;26642;55.766;37.828;2023-02-28T11:01:16;10.90;52.00
40636;DHT22;26642;55.766;37.828;2023-02-28T11:03:42;10.90;52.10
40636;DHT22;26642;55.766;37.828;2023-02-28T11:06:16;10.90;52.20
40636;DHT22;26642;55.766;37.828;2023-02-28T11:08:49;10.90;52.40
40636;DHT22;26642;55.766;37.828;2023-02-28T11:11:17;10.80;52.80
40636;DHT22;26642;55.766;37.828;2023-02-28T11:13:44;10.80;52.60
40636;DHT22;26642;55.766;37.828;2023-02-28T11:16:13;10.80;52.50
40636;DHT22;26642;55.766;37.828;2023-02-28T11:18:54;10.90;52.70
40636;DHT22;26642;55.766;37.828;2023-02-28T11:21:26;10.80;52.70
40636;DHT22;26642;55.766;37.828;2023-02-28T11:24:01;10.80;52.80
40636;DHT22;26642;55.766;37.828;2023-02-28T11:26:57;10.80;52.90
40636;DHT22;26642;55.766;37.828;2023-02-28T11:29:26;10.80;52.90
40636;DHT22;26642;55.766;37.828;2023-02-28T11:34:37;10.80;53.10
40636;DHT22;26642;55.766;37.828;2023-02-28T11:37:05;10.80;53.20
40636;DHT22;26642;55.766;37.828;2023-02-28T11:39:33;10.80;53.80
40636;DHT22;26642;55.766;37.828;2023-02-28T11:47:43;10.80;55.60
40636;DHT22;26642;55.766;37.828;2023-02-28T11:50:46;10.80;55.80
40636;DHT22;26642;55.766;37.828;2023-02-28T12:05:24;10.90;56.60
40636;DHT22;26642;55.766;37.828;2023-02-28T12:13:50;10.90;56.90
40636;DHT22;26642;55.766;37.828;2023-02-28T12:25:09;10.90;57.00
40636;DHT22;26642;55.766;37.828;2023-02-28T12:27:46;10.90;57.00
40636;DHT22;26642;55.766;37.828;2023-02-28T12:30:16;10.90;57.10
40636;DHT22;26642;55.766;37.828;2023-02-28T12:33:06;10.90;57.10
40636;DHT22;26642;55.766;37.828;2023-02-28T12:35:53;10.90;57.30
40636;DHT22;26642;55.766;37.828;2023-02-28T12:38:38;10.90;57.40
40636;DHT22;26642;55.766;37.828;2023-02-28T12:41:18;10.90;57.60
40636;DHT22;26642;55.766;37.828;2023-02-28T12:43:57;10.90;57.70
40636;DHT22;26642;55.766;37.828;2023-02-28T12:46:50;10.90;57.80
40636;DHT22;26642;55.766;37.828;2023-02-28T12:52:05;10.90;58.10
40636;DHT22;26642;55.766;37.828;2023-02-28T12:54:50;10.90;58.10
40636;DHT22;26642;55.766;37.828;2023-02-28T13:00:12;10.90;58.20
40636;DHT22;26642;55.766;37.828;2023-02-28T13:08:41;10.90;58.10
40636;DHT22;26642;55.766;37.828;2023-02-28T13:11:40;10.90;58.00
40636;DHT22;26642;55.766;37.828;2023-02-28T13:14:35;10.90;58.00
40636;DHT22;26642;55.766;37.828;2023-02-28T13:24:52;10.90;58.30
40636;DHT22;26642;55.766;37.828;2023-02-28T13:27:31;10.90;58.20
40636;DHT22;26642;55.766;37.828;2023-02-28T13:29:57;10.90;58.30
40636;DHT22;26642;55.766;37.828;2023-02-28T13:32:30;10.90;58.20
40636;DHT22;26642;55.766;37.828;2023-02-28T13:39:52;10.90;58.40
40636;DHT22;26642;55.766;37.828;2023-02-28T13:47:42;10.90;58.40
40636;DHT22;26642;55.766;37.828;2023-02-28T14:01:35;10.90;59.30
40636;DHT22;26642;55.766;37.828;2023-02-28T14:06:57;10.90;59.70
40636;DHT22;26642;55.766;37.828;2023-02-28T14:11:52;10.90;59.90
40636;DHT22;26642;55.766;37.828;2023-02-28T14:17:15;10.90;59.90
40636;DHT22;26642;55.766;37.828;2023-02-28T14:19:45;10.90;59.90
40636;DHT22;26642;55.766;37.828;2023-02-28T14:25:05;10.90;60.10
40636;DHT22;26642;55.766;37.828;2023-02-28T14:30:17;10.90;60.80
40636;DHT22;26642;55.766;37.828;2023-02-28T14:36:00;10.90;60.90
40636;DHT22;26642;55.766;37.828;2023-02-28T14:38:35;10.90;61.00
40636;DHT22;26642;55.766;37.828;2023-02-28T14:41:06;10.90;61.00
40636;DHT22;26642;55.766;37.828;2023-02-28T14:43:48;10.90;60.90
40636;DHT22;26642;55.766;37.828;2023-02-28T14:46:15;10.90;61.00
40636;DHT22;26642;55.766;37.828;2023-02-28T14:48:46;10.90;60.80
40636;DHT22;26642;55.766;37.828;2023-02-28T14:51:18;10.90;60.80
40636;DHT22;26642;55.766;37.828;2023-02-28T14:53:49;10.90;60.80
40636;DHT22;26642;55.766;37.828;2023-02-28T14:56:32;10.90;60.80
40636;DHT22;26642;55.766;37.828;2023-02-28T14:59:00;10.90;60.80
40636;DHT22;26642;55.766;37.828;2023-02-28T15:01:27;10.90;60.60
40636;DHT22;26642;55.766;37.828;2023-02-28T15:04:01;10.90;60.80
40636;DHT22;26642;55.766;37.828;2023-02-28T15:06:29;10.90;60.70
40636;DHT22;26642;55.766;37.828;2023-02-28T15:09:15;10.90;60.60
40636;DHT22;26642;55.766;37.828;2023-02-28T15:11:46;10.90;60.70
40636;DHT22;26642;55.766;37.828;2023-02-28T15:14:20;11.20;72.90
40636;DHT22;26642;55.766;37.828;2023-02-28T15:16:52;11.90;71.80
40636;DHT22;26642;55.766;37.828;2023-02-28T15:19:30;12.10;68.90
40636;DHT22;26642;55.766;37.828;2023-02-28T15:22:04;12.00;65.70
40636;DHT22;26642;55.766;37.828;2023-02-28T15:24:50;11.90;63.70
40636;DHT22;26642;55.766;37.828;2023-02-28T15:27:21;11.80;62.60
40636;DHT22;26642;55.766;37.828;2023-02-28T15:29:51;11.70;61.90
40636;DHT22;26642;55.766;37.828;2023-02-28T15:32:30;11.70;61.10
40636;DHT22;26642;55.766;37.828;2023-02-28T15:34:59;11.60;60.80
40636;DHT22;26642;55.766;37.828;2023-02-28T15:37:52;11.60;60.40
40636;DHT22;26642;55.766;37.828;2023-02-28T15:40:30;11.60;60.20
40636;DHT22;26642;55.766;37.828;2023-02-28T15:43:11;11.50;60.00
40636;DHT22;26642;55.766;37.828;2023-02-28T15:45:52;11.50;59.80
40636;DHT22;26642;55.766;37.828;2023-02-28T15:48:23;11.50;59.80
40636;DHT22;26642;55.766;37.828;2023-02-28T15:53:31;11.40;59.60
40636;DHT22;26642;55.766;37.828;2023-02-28T15:56:01;11.40;59.50
40636;DHT22;26642;55.766;37.828;2023-02-28T15:58:28;11.40;59.50
40636;DHT22;26642;55.766;37.828;2023-02-28T16:01:05;11.40;59.50
40636;DHT22;26642;55.766;37.828;2023-02-28T16:03:42;11.30;59.50
40636;DHT22;26642;55.766;37.828;2023-02-28T16:08:55;11.30;59.40
40636;DHT22;26642;55.766;37.828;2023-02-28T16:11:21;11.30;59.30
40636;DHT22;26642;55.766;37.828;2023-02-28T16:13:48;11.30;59.20
40636;DHT22;26642;55.766;37.828;2023-02-28T16:16:23;11.30;59.20
40636;DHT22;26642;55.766;37.828;2023-02-28T16:18:50;11.30;59.20
40636;DHT22;26642;55.766;37.828;2023-02-28T16:21:17;11.30;59.30
40636;DHT22;26642;55.766;37.828;2023-02-28T16:23:43;11.30;59.20
40636;DHT22;26642;55.766;37.828;2023-02-28T16:26:18;11.30;60.00
40636;DHT22;26642;55.766;37.828;2023-02-28T16:28:45;11.30;59.60
40636;DHT22;26642;55.766;37.828;2023-02-28T16:31:12;11.30;59.70
40636;DHT22;26642;55.766;37.828;2023-02-28T16:33:42;11.30;59.70
40636;DHT22;26642;55.766;37.828;2023-02-28T16:36:14;11.30;59.80
40636;DHT22;26642;55.766;37.828;2023-02-28T16:38:40;11.30;59.80
40636;DHT22;26642;55.766;37.828;2023-02-28T16:41:06;11.30;59.80
40636;DHT22;26642;55.766;37.828;2023-02-28T16:43:32;11.30;59.80
40636;DHT22;26642;55.766;37.828;2023-02-28T16:45:58;11.30;59.80
40636;DHT22;26642;55.766;37.828;2023-02-28T16:48:25;11.20;59.70
40636;DHT22;26642;55.766;37.828;2023-02-28T16:50:51;11.20;59.60
40636;DHT22;26642;55.766;37.828;2023-02-28T16:53:17;11.30;59.70
40636;DHT22;26642;55.766;37.828;2023-02-28T16:55:43;11.30;59.60
40636;DHT22;26642;55.766;37.828;2023-02-28T16:58:14;11.20;59.50
40636;DHT22;26642;55.766;37.828;2023-02-28T17:00:40;11.20;59.40
40636;DHT22;26642;55.766;37.828;2023-02-28T17:03:23;11.20;59.60
40636;DHT22;26642;55.766;37.828;2023-02-28T17:05:49;11.20;59.70
40636;DHT22;26642;55.766;37.828;2023-02-28T17:08:15;11.20;59.80
40636;DHT22;26642;55.766;37.828;2023-02-28T17:10:42;11.30;60.00
40636;DHT22;26642;55.766;37.828;2023-02-28T17:13:08;11.20;60.10
40636;DHT22;26642;55.766;37.828;2023-02-28T17:15:35;11.20;60.30
40636;DHT22;26642;55.766;37.828;2023-02-28T17:18:02;11.20;60.50
40636;DHT22;26642;55.766;37.828;2023-02-28T17:20:28;11.30;60.80
40636;DHT22;26642;55.766;37.828;2023-02-28T17:22:55;11.20;61.00
40636;DHT22;26642;55.766;37.828;2023-02-28T17:25:23;11.20;61.30
40636;DHT22;26642;55.766;37.828;2023-02-28T17:27:49;11.20;61.40
40636;DHT22;26642;55.766;37.828;2023-02-28T17:30:20;11.30;61.50
40636;DHT22;26642;55.766;37.828;2023-02-28T17:32:46;11.30;61.60
40636;DHT22;26642;55.766;37.828;2023-02-28T17:35:12;11.30;61.70
40636;DHT22;26642;55.766;37.828;2023-02-28T17:37:39;11.20;61.90
40636;DHT22;26642;55.766;37.828;2023-02-28T17:40:06;11.30;61.90
40636;DHT22;26642;55.766;37.828;2023-02-28T17:42:39;11.20;61.90
40636;DHT22;26642;55.766;37.828;2023-02-28T17:45:05;11.30;62.10
40636;DHT22;26642;55.766;37.828;2023-02-28T17:47:31;11.20;62.70
40636;DHT22;26642;55.766;37.828;2023-02-28T17:49:57;11.30;62.00
40636;DHT22;26642;55.766;37.828;2023-02-28T17:52:23;11.30;63.60
40636;DHT22;26642;55.766;37.828;2023-02-28T17:54:49;11.30;63.30
40636;DHT22;26642;55.766;37.828;2023-02-28T17:57:15;11.30;63.00
40636;DHT22;26642;55.766;37.828;2023-02-28T17:59:43;11.30;62.60
40636;DHT22;26642;55.766;37.828;2023-02-28T18:02:12;11.40;62.30
40636;DHT22;26642;55.766;37.828;2023-02-28T18:04:39;11.30;62.00
40636;DHT22;26642;55.766;37.828;2023-02-28T18:07:06;11.30;62.00
40636;DHT22;26642;55.766;37.828;2023-02-28T18:09:34;11.40;61.90
40636;DHT22;26642;55.766;37.828;2023-02-28T18:12:00;11.30;61.50
40636;DHT22;26642;55.766;37.828;2023-02-28T18:14:26;11.30;61.60